| time (UTC) | temp F | wind direction | speed knots | gust knots | rain 1hr in | rain 24hr in | rain mn in | humidity % | barometer mb |
| 20260508173030 | 66 | 11 | 0.0 | 2.6 | 0.00 | 0.00 | 0.00 | 45 | 1010.9 |
| 20260508171529 | 65 | 274 | 0.0 | 2.6 | 0.00 | 0.00 | 0.00 | 49 | 1011.1 |
| 20260508170025 | 64 | 160 | 0.0 | 0.9 | 0.00 | 0.00 | 0.00 | 51 | 1011.2 |
| 20260508164521 | 64 | 91 | 0.9 | 2.6 | 0.00 | 0.00 | 0.00 | 52 | 1011.3 |
| 20260508163027 | 62 | 329 | 0.0 | 1.7 | 0.00 | 0.00 | 0.00 | 54 | 1011.3 |
| 20260508161513 | 60 | 102 | 0.0 | 1.7 | 0.00 | 0.00 | 0.00 | 56 | 1011.4 |
| 20260508160019 | 59 | 120 | 0.0 | 1.7 | 0.00 | 0.00 | 0.00 | 58 | 1011.5 |
| 20260508154508 | 59 | 100 | 0.0 | 1.7 | 0.00 | 0.00 | 0.00 | 58 | 1011.6 |
| 20260508153006 | 58 | 94 | 0.0 | 2.6 | 0.00 | 0.00 | 0.00 | 60 | 1011.7 |
| 20260508151505 | 58 | 110 | 0.0 | 1.7 | 0.00 | 0.00 | 0.00 | 62 | 1011.9 |
| 20260508150111 | 56 | 97 | 0.0 | 1.7 | 0.00 | 0.00 | 0.00 | 65 | 1011.9 |
| 20260508144556 | 55 | 65 | 0.0 | 0.0 | 0.00 | 0.01 | 0.00 | 71 | 1011.9 |
| 20260508143107 | 50 | 65 | 0.0 | 0.0 | 0.00 | 0.01 | 0.00 | 81 | 1012.0 |
| 20260508141548 | 46 | 26 | 0.0 | 0.9 | 0.00 | 0.01 | 0.00 | 90 | 1012.0 |
| 20260508140059 | 41 | 26 | 0.0 | 0.0 | 0.00 | 0.01 | 0.00 | 91 | 1012.0 |
| 20260508134546 | 40 | 26 | 0.0 | 0.0 | 0.00 | 0.01 | 0.00 | 92 | 1011.9 |
| 20260508133044 | 39 | 26 | 0.0 | 0.0 | 0.00 | 0.01 | 0.00 | 91 | 1011.9 |
| 20260508131543 | 38 | 26 | 0.0 | 0.0 | 0.00 | 0.01 | 0.00 | 90 | 1011.8 |
| 20260508130042 | 38 | 26 | 0.0 | 0.0 | 0.00 | 0.01 | 0.00 | 90 | 1011.8 |
| 20260508124541 | 38 | 26 | 0.0 | 0.0 | 0.00 | 0.01 | 0.00 | 91 | 1011.8 |
| 20260508123039 | 38 | 26 | 0.0 | 0.0 | 0.00 | 0.01 | 0.00 | 90 | 1011.7 |
| 20260508121537 | 39 | 26 | 0.0 | 0.0 | 0.00 | 0.01 | 0.00 | 90 | 1011.8 |
| 20260508120035 | 39 | 26 | 0.0 | 0.0 | 0.00 | 0.01 | 0.00 | 89 | 1011.8 |
| 20260508114534 | 39 | 26 | 0.0 | 0.0 | 0.00 | 0.01 | 0.00 | 89 | 1011.8 |
| 20260508113032 | 40 | 26 | 0.0 | 0.0 | 0.00 | 0.01 | 0.00 | 88 | 1011.8 |
| 20260508111530 | 40 | 26 | 0.0 | 0.0 | 0.00 | 0.01 | 0.00 | 89 | 1011.9 |
| 20260508110028 | 40 | 26 | 0.0 | 0.0 | 0.00 | 0.01 | 0.00 | 87 | 1011.8 |
| 20260508104524 | 41 | 26 | 0.0 | 0.0 | 0.00 | 0.01 | 0.00 | 87 | 1011.8 |
| 20260508103024 | 41 | 26 | 0.0 | 0.0 | 0.00 | 0.01 | 0.00 | 88 | 1011.7 |
| 20260508101521 | 41 | 26 | 0.0 | 0.0 | 0.00 | 0.01 | 0.00 | 86 | 1011.6 |
| 20260508100024 | 42 | 26 | 0.0 | 0.0 | 0.00 | 0.01 | 0.00 | 85 | 1011.7 |
| 20260508094519 | 43 | 26 | 0.0 | 0.0 | 0.00 | 0.01 | 0.00 | 85 | 1011.7 |
| 20260508093019 | 43 | 26 | 0.0 | 0.0 | 0.00 | 0.01 | 0.00 | 84 | 1011.7 |
| 20260508091516 | 43 | 26 | 0.0 | 0.0 | 0.00 | 0.01 | 0.00 | 83 | 1011.7 |
| 20260508090010 | 44 | 26 | 0.0 | 0.0 | 0.00 | 0.01 | 0.00 | 83 | 1011.7 |
| 20260508084509 | 44 | 26 | 0.0 | 0.0 | 0.00 | 0.01 | 0.00 | 83 | 1011.5 |
| 20260508083007 | 45 | 26 | 0.0 | 0.0 | 0.00 | 0.01 | 0.00 | 82 | 1011.4 |
| 20260508081506 | 45 | 26 | 0.0 | 0.0 | 0.00 | 0.01 | 0.00 | 81 | 1011.3 |
| 20260508080015 | 45 | 26 | 0.0 | 0.0 | 0.00 | 0.01 | 0.00 | 80 | 1011.3 |
| 20260508074502 | 46 | 26 | 0.0 | 0.0 | 0.00 | 0.01 | 0.00 | 80 | 1011.3 |
| 20260508073102 | 46 | 26 | 0.0 | 0.0 | 0.00 | 0.01 | 0.00 | 80 | 1011.3 |
| 20260508071558 | 46 | 26 | 0.0 | 0.0 | 0.00 | 0.01 | 0.00 | 80 | 1011.4 |
| 20260508070056 | 46 | 26 | 0.0 | 0.0 | 0.00 | 0.01 | 0.00 | 79 | 1011.5 |
| 20260508064559 | 47 | 26 | 0.0 | 0.0 | 0.00 | 0.01 | 0.01 | 77 | 1011.4 |
| 20260508063055 | 48 | 26 | 0.0 | 0.0 | 0.00 | 0.01 | 0.01 | 77 | 1011.4 |
| 20260508061554 | 49 | 26 | 0.0 | 0.0 | 0.00 | 0.01 | 0.01 | 76 | 1011.3 |
| 20260508060057 | 50 | 26 | 0.0 | 0.0 | 0.00 | 0.01 | 0.01 | 74 | 1011.2 |
| 20260508054558 | 51 | 26 | 0.0 | 0.0 | 0.00 | 0.01 | 0.01 | 72 | 1011.1 |
| 20260508053101 | 52 | 26 | 0.0 | 0.0 | 0.00 | 0.01 | 0.01 | 71 | 1011.1 |
| 20260508051608 | 53 | 26 | 0.0 | 0.0 | 0.00 | 0.01 | 0.01 | 70 | 1011.0 |
| 20260508050103 | 54 | 26 | 0.0 | 0.0 | 0.00 | 0.01 | 0.01 | 70 | 1010.9 |
| 20260508044555 | 54 | 26 | 0.0 | 0.0 | 0.00 | 0.01 | 0.01 | 67 | 1010.8 |
| 20260508043051 | 56 | 26 | 0.0 | 0.0 | 0.00 | 0.01 | 0.01 | 65 | 1010.8 |
| 20260508041555 | 57 | 26 | 0.0 | 0.0 | 0.00 | 0.01 | 0.01 | 63 | 1010.8 |
| 20260508040058 | 58 | 26 | 0.0 | 0.0 | 0.00 | 0.01 | 0.01 | 59 | 1010.6 |
| 20260508034550 | 61 | 26 | 0.0 | 0.0 | 0.00 | 0.01 | 0.01 | 57 | 1010.5 |
| 20260508033050 | 62 | 26 | 0.0 | 0.0 | 0.00 | 0.01 | 0.01 | 54 | 1010.5 |
| 20260508031549 | 65 | 26 | 0.0 | 0.0 | 0.00 | 0.01 | 0.01 | 48 | 1010.5 |
| 20260508030053 | 66 | 26 | 0.0 | 1.7 | 0.00 | 0.01 | 0.01 | 48 | 1010.5 |
| 20260508024548 | 69 | 25 | 0.0 | 1.7 | 0.00 | 0.01 | 0.01 | 44 | 1010.4 |
| 20260508023048 | 71 | 26 | 0.0 | 0.0 | 0.00 | 0.01 | 0.01 | 34 | 1010.4 |
| 20260508021548 | 73 | 26 | 0.0 | 0.0 | 0.00 | 0.01 | 0.01 | 34 | 1010.5 |
| 20260508020054 | 74 | 25 | 0.0 | 0.9 | 0.00 | 0.01 | 0.01 | 33 | 1010.4 |
| 20260508014546 | 75 | 26 | 0.0 | 1.7 | 0.00 | 0.04 | 0.01 | 32 | 1010.4 |
| 20260508013045 | 76 | 99 | 0.0 | 1.7 | 0.00 | 0.04 | 0.01 | 28 | 1010.5 |
| 20260508011546 | 76 | 50 | 0.0 | 2.6 | 0.00 | 0.04 | 0.01 | 26 | 1010.6 |
| 20260508010042 | 77 | 255 | 0.0 | 2.6 | 0.00 | 0.04 | 0.01 | 27 | 1010.7 |
| 20260508004548 | 79 | 181 | 0.0 | 1.7 | 0.00 | 0.04 | 0.01 | 23 | 1010.8 |
| 20260508003047 | 80 | 89 | 0.9 | 2.6 | 0.00 | 0.04 | 0.01 | 22 | 1010.9 |
| 20260508001541 | 79 | 279 | 0.0 | 1.7 | 0.00 | 0.04 | 0.01 | 24 | 1011.0 |
| 20260508000039 | 80 | 139 | 0.0 | 1.7 | 0.00 | 0.04 | 0.01 | 24 | 1010.9 |
| 20260507234548 | 80 | 226 | 0.0 | 2.6 | 0.00 | 0.04 | 0.01 | 23 | 1011.0 |
| 20260507233049 | 81 | 229 | 0.0 | 3.5 | 0.00 | 0.04 | 0.01 | 23 | 1011.0 |
| 20260507231536 | 81 | 325 | 0.0 | 2.6 | 0.00 | 0.04 | 0.01 | 20 | 1011.1 |
| 20260507230035 | 81 | 293 | 0.0 | 2.6 | 0.00 | 0.04 | 0.01 | 20 | 1011.3 |
| 20260507224534 | 80 | 16 | 0.9 | 2.6 | 0.00 | 0.04 | 0.01 | 21 | 1011.4 |
| 20260507223036 | 81 | 294 | 0.0 | 2.6 | 0.00 | 0.04 | 0.01 | 20 | 1011.7 |
| 20260507221535 | 80 | 76 | 1.7 | 3.5 | 0.00 | 0.04 | 0.01 | 21 | 1012.0 |
| 20260507220036 | 81 | 108 | 0.0 | 1.7 | 0.00 | 0.04 | 0.01 | 22 | 1012.1 |
| 20260507214528 | 79 | 98 | 0.0 | 3.5 | 0.00 | 0.04 | 0.01 | 22 | 1012.4 |
| 20260507213031 | 79 | 285 | 0.9 | 2.6 | 0.00 | 0.04 | 0.01 | 23 | 1012.7 |
| 20260507211528 | 78 | 293 | 0.9 | 5.2 | 0.00 | 0.04 | 0.01 | 24 | 1012.8 |
| 20260507210028 | 79 | 103 | 0.0 | 6.1 | 0.00 | 0.04 | 0.01 | 25 | 1013.0 |
| 20260507204522 | 78 | 94 | 1.7 | 2.6 | 0.00 | 0.04 | 0.01 | 23 | 1013.1 |
| 20260507203018 | 79 | 124 | 0.0 | 3.5 | 0.00 | 0.04 | 0.01 | 24 | 1013.3 |
| 20260507201517 | 77 | 257 | 0.0 | 4.3 | 0.00 | 0.04 | 0.01 | 25 | 1013.4 |
| 20260507200014 | 77 | 348 | 0.9 | 2.6 | 0.00 | 0.04 | 0.01 | 27 | 1013.7 |
| 20260507194526 | 75 | 123 | 0.0 | 3.5 | 0.00 | 0.04 | 0.01 | 29 | 1013.7 |
| 20260507193111 | 74 | 73 | 1.7 | 3.5 | 0.00 | 0.04 | 0.01 | 28 | 1013.9 |
| 20260507191505 | 74 | 90 | 0.9 | 3.5 | 0.00 | 0.04 | 0.01 | 33 | 1014.0 |
| 20260507190001 | 72 | 280 | 0.9 | 2.6 | 0.00 | 0.04 | 0.01 | 35 | 1014.1 |
| 20260507184600 | 72 | 120 | 0.0 | 3.5 | 0.00 | 0.04 | 0.01 | 33 | 1014.1 |
| 20260507183115 | 72 | 242 | 0.9 | 1.7 | 0.00 | 0.04 | 0.01 | 38 | 1014.3 |
| 20260507181600 | 71 | 77 | 0.9 | 2.6 | 0.00 | 0.04 | 0.01 | 39 | 1014.5 |
| 20260507180054 | 70 | 221 | 0.0 | 1.7 | 0.00 | 0.04 | 0.01 | 43 | 1014.6 |
| 20260507174601 | 70 | 119 | 0.0 | 2.6 | 0.00 | 0.04 | 0.01 | 42 | 1014.6 |